Świnoujście, Poland

11:43 AM CEST on July 27, 2016 (GMT +0200)
Kreuzstraße | | Change Station

Elev 26 ft 54.05 °N, 14.00 °E | Updated 4 minutes ago

Clear
Clear
70.9 °F
Feels Like 73 °F
N
1.2
Wind Variable Wind from NE
Gusts 3.7 mph

Today
High -- | Low -- °F
--% Chance of Precip.
Yesterday
High -- | Low -- °F
Precip. -- in
Pressure 30.04 in
Visibility -9999.0 miles
Clouds
Heat Index 73 °F
Dew Point 62 °F
Humidity 74%
Rainfall 0.00 in
Snow Depth Not available.
5:09 AM 9:09 PM
Last Quarter, 45% visible
METAR EPSC 270930Z 10006KT 040V150 CAVOK 24/14 Q1017
Pressure 30.04 in
Visibility -9999.0 miles
Clouds
Heat Index 73 °F
Dew Point 62 °F
Humidity 74%
Rainfall 0.00 in
Snow Depth Not available.
5:09 AM 9:09 PM
Last Quarter, 45% visible
METAR EPSC 270930Z 10006KT 040V150 CAVOK 24/14 Q1017

10-Day Weather Forecast

×

Almanac

Astronomy

Jul. 27, 2016 Rise Set
Actual Time
Civil Twilight
Nautical Twilight
Astronomical Twilight
Moon
Length of Visible Light
Length of Day
Tomorrow will be .
, % of the Moon is Illuminated

Today's Extremes

Country Highs Country Lows

Community

WunderPhotos

Upload Photos

1,927,818 photos uploaded!

WunderBlog® & News

Nearby

Air Quality

  Air Quality AQ Index Pollutant
Not available.

Snow Depth

Station Depth Elevation

Earthquake Activity

City Distance Mag. Time & Date
Minimum magnitude displayed is 2.5.

Coastal Water Temperatures

Place Temperature

Stations

Nearby Weather Stations

Station Location Temp. Windchill Dew Point Humidity Wind Precip. Elev Updated Type